sensor_id;sensor_type;location;lat;lon;timestamp;temperature;humidity
25945;SHT31;13742;49.306;8.636;2022-10-26T00:01:08;14.52;82.29
25945;SHT31;13742;49.306;8.636;2022-10-26T00:01:52;14.52;82.11
25945;SHT31;13742;49.306;8.636;2022-10-26T00:02:53;14.52;81.90
25945;SHT31;13742;49.306;8.636;2022-10-26T00:03:54;14.50;82.04
25945;SHT31;13742;49.306;8.636;2022-10-26T00:04:52;14.48;81.93
25945;SHT31;13742;49.306;8.636;2022-10-26T00:05:52;14.48;82.19
25945;SHT31;13742;49.306;8.636;2022-10-26T00:06:52;14.47;81.94
25945;SHT31;13742;49.306;8.636;2022-10-26T00:07:52;14.48;81.93
25945;SHT31;13742;49.306;8.636;2022-10-26T00:08:52;14.50;82.16
25945;SHT31;13742;49.306;8.636;2022-10-26T00:09:52;14.52;82.16
25945;SHT31;13742;49.306;8.636;2022-10-26T00:10:56;14.55;82.14
25945;SHT31;13742;49.306;8.636;2022-10-26T00:11:52;14.54;81.97
25945;SHT31;13742;49.306;8.636;2022-10-26T00:12:52;14.54;82.03
25945;SHT31;13742;49.306;8.636;2022-10-26T00:13:52;14.55;82.06
25945;SHT31;13742;49.306;8.636;2022-10-26T00:14:52;14.55;81.99
25945;SHT31;13742;49.306;8.636;2022-10-26T00:15:52;14.55;81.89
25945;SHT31;13742;49.306;8.636;2022-10-26T00:16:52;14.55;81.84
25945;SHT31;13742;49.306;8.636;2022-10-26T00:17:52;14.55;81.80
25945;SHT31;13742;49.306;8.636;2022-10-26T00:18:52;14.57;81.94
25945;SHT31;13742;49.306;8.636;2022-10-26T00:19:52;14.57;82.01
25945;SHT31;13742;49.306;8.636;2022-10-26T00:20:52;14.57;81.81
25945;SHT31;13742;49.306;8.636;2022-10-26T00:21:52;14.55;81.62
25945;SHT31;13742;49.306;8.636;2022-10-26T00:22:52;14.52;81.72
25945;SHT31;13742;49.306;8.636;2022-10-26T00:23:52;14.52;81.91
25945;SHT31;13742;49.306;8.636;2022-10-26T00:24:52;14.54;81.90
25945;SHT31;13742;49.306;8.636;2022-10-26T00:25:53;14.54;81.91
25945;SHT31;13742;49.306;8.636;2022-10-26T00:26:52;14.52;82.09
25945;SHT31;13742;49.306;8.636;2022-10-26T00:27:52;14.52;82.19
25945;SHT31;13742;49.306;8.636;2022-10-26T00:28:53;14.50;82.09
25945;SHT31;13742;49.306;8.636;2022-10-26T00:29:52;14.50;82.03
25945;SHT31;13742;49.306;8.636;2022-10-26T00:30:52;14.48;82.14
25945;SHT31;13742;49.306;8.636;2022-10-26T00:31:52;14.47;82.15
25945;SHT31;13742;49.306;8.636;2022-10-26T00:32:52;14.47;82.19
25945;SHT31;13742;49.306;8.636;2022-10-26T00:33:54;14.48;82.32
25945;SHT31;13742;49.306;8.636;2022-10-26T00:34:52;14.48;82.34
25945;SHT31;13742;49.306;8.636;2022-10-26T00:35:53;14.50;82.38
25945;SHT31;13742;49.306;8.636;2022-10-26T00:36:52;14.52;82.37
25945;SHT31;13742;49.306;8.636;2022-10-26T00:37:55;14.51;82.36
25945;SHT31;13742;49.306;8.636;2022-10-26T00:38:54;14.48;82.13
25945;SHT31;13742;49.306;8.636;2022-10-26T00:39:52;14.50;82.38
25945;SHT31;13742;49.306;8.636;2022-10-26T00:40:52;14.48;82.16
25945;SHT31;13742;49.306;8.636;2022-10-26T00:41:52;14.48;82.42
25945;SHT31;13742;49.306;8.636;2022-10-26T00:42:52;14.48;82.34
25945;SHT31;13742;49.306;8.636;2022-10-26T00:43:53;14.50;82.38
25945;SHT31;13742;49.306;8.636;2022-10-26T00:44:59;14.52;82.35
25945;SHT31;13742;49.306;8.636;2022-10-26T00:45:54;14.45;82.08
25945;SHT31;13742;49.306;8.636;2022-10-26T00:46:52;14.48;82.23
25945;SHT31;13742;49.306;8.636;2022-10-26T00:47:57;14.45;82.17
25945;SHT31;13742;49.306;8.636;2022-10-26T00:48:55;14.45;82.11
25945;SHT31;13742;49.306;8.636;2022-10-26T00:49:54;14.44;82.02
25945;SHT31;13742;49.306;8.636;2022-10-26T00:50:53;14.45;82.03
25945;SHT31;13742;49.306;8.636;2022-10-26T00:51:52;14.42;81.93
25945;SHT31;13742;49.306;8.636;2022-10-26T00:52:53;14.44;82.06
25945;SHT31;13742;49.306;8.636;2022-10-26T00:53:54;14.44;82.02
25945;SHT31;13742;49.306;8.636;2022-10-26T00:54:53;14.47;82.08
25945;SHT31;13742;49.306;8.636;2022-10-26T00:55:53;14.45;82.05
25945;SHT31;13742;49.306;8.636;2022-10-26T00:56:53;14.45;81.87
25945;SHT31;13742;49.306;8.636;2022-10-26T00:57:53;14.44;81.76
25945;SHT31;13742;49.306;8.636;2022-10-26T00:58:53;14.47;81.86
25945;SHT31;13742;49.306;8.636;2022-10-26T00:59:55;14.50;81.86
25945;SHT31;13742;49.306;8.636;2022-10-26T01:00:53;14.47;81.74
25945;SHT31;13742;49.306;8.636;2022-10-26T01:01:52;14.47;81.72
25945;SHT31;13742;49.306;8.636;2022-10-26T01:02:54;14.47;81.48
25945;SHT31;13742;49.306;8.636;2022-10-26T01:03:52;14.47;81.55
25945;SHT31;13742;49.306;8.636;2022-10-26T01:04:53;14.48;81.61
25945;SHT31;13742;49.306;8.636;2022-10-26T01:05:55;14.51;81.83
25945;SHT31;13742;49.306;8.636;2022-10-26T01:06:53;14.48;81.66
25945;SHT31;13742;49.306;8.636;2022-10-26T01:07:52;14.51;81.67
25945;SHT31;13742;49.306;8.636;2022-10-26T01:08:53;14.48;81.50
25945;SHT31;13742;49.306;8.636;2022-10-26T01:09:53;14.51;81.36
25945;SHT31;13742;49.306;8.636;2022-10-26T01:10:53;14.48;81.47
25945;SHT31;13742;49.306;8.636;2022-10-26T01:11:52;14.51;81.55
25945;SHT31;13742;49.306;8.636;2022-10-26T01:12:54;14.51;81.49
25945;SHT31;13742;49.306;8.636;2022-10-26T01:13:53;14.51;81.52
25945;SHT31;13742;49.306;8.636;2022-10-26T01:14:52;14.51;81.49
25945;SHT31;13742;49.306;8.636;2022-10-26T01:16:16;14.51;81.42
25945;SHT31;13742;49.306;8.636;2022-10-26T01:18:02;14.51;81.40
25945;SHT31;13742;49.306;8.636;2022-10-26T01:21:08;14.48;81.15
25945;SHT31;13742;49.306;8.636;2022-10-26T01:22:07;14.51;81.29
25945;SHT31;13742;49.306;8.636;2022-10-26T01:27:52;14.50;81.05
25945;SHT31;13742;49.306;8.636;2022-10-26T01:30:54;14.50;81.01
25945;SHT31;13742;49.306;8.636;2022-10-26T01:31:58;14.50;80.88
25945;SHT31;13742;49.306;8.636;2022-10-26T01:34:01;14.47;80.97
25945;SHT31;13742;49.306;8.636;2022-10-26T01:35:15;14.45;81.02
25945;SHT31;13742;49.306;8.636;2022-10-26T01:36:55;14.47;81.12
25945;SHT31;13742;49.306;8.636;2022-10-26T01:39:00;14.48;81.12
25945;SHT31;13742;49.306;8.636;2022-10-26T01:39:58;14.44;81.25
25945;SHT31;13742;49.306;8.636;2022-10-26T01:41:57;14.45;81.15
25945;SHT31;13742;49.306;8.636;2022-10-26T01:42:54;14.45;81.23
25945;SHT31;13742;49.306;8.636;2022-10-26T01:43:58;14.42;81.07
25945;SHT31;13742;49.306;8.636;2022-10-26T01:44:58;14.45;81.17
25945;SHT31;13742;49.306;8.636;2022-10-26T01:45:53;14.45;81.33
25945;SHT31;13742;49.306;8.636;2022-10-26T01:46:53;14.45;81.06
25945;SHT31;13742;49.306;8.636;2022-10-26T01:47:53;14.45;81.11
25945;SHT31;13742;49.306;8.636;2022-10-26T01:48:56;14.45;81.03
25945;SHT31;13742;49.306;8.636;2022-10-26T01:49:55;14.45;81.25
25945;SHT31;13742;49.306;8.636;2022-10-26T01:50:53;14.45;81.13
25945;SHT31;13742;49.306;8.636;2022-10-26T01:51:52;14.42;81.10
25945;SHT31;13742;49.306;8.636;2022-10-26T01:52:53;14.44;81.14
25945;SHT31;13742;49.306;8.636;2022-10-26T01:53:52;14.45;81.17
25945;SHT31;13742;49.306;8.636;2022-10-26T01:55:00;14.47;81.02
25945;SHT31;13742;49.306;8.636;2022-10-26T01:55:53;14.45;80.99
25945;SHT31;13742;49.306;8.636;2022-10-26T01:56:55;14.45;81.05
25945;SHT31;13742;49.306;8.636;2022-10-26T01:57:58;14.45;81.05
25945;SHT31;13742;49.306;8.636;2022-10-26T02:00:08;14.45;80.96
25945;SHT31;13742;49.306;8.636;2022-10-26T02:01:00;14.45;80.88
25945;SHT31;13742;49.306;8.636;2022-10-26T02:02:14;14.42;80.98
25945;SHT31;13742;49.306;8.636;2022-10-26T02:04:00;14.42;80.79
25945;SHT31;13742;49.306;8.636;2022-10-26T02:05:09;14.45;80.98
25945;SHT31;13742;49.306;8.636;2022-10-26T02:06:11;14.45;80.95
25945;SHT31;13742;49.306;8.636;2022-10-26T02:07:01;14.45;80.88
25945;SHT31;13742;49.306;8.636;2022-10-26T02:08:04;14.45;80.63
25945;SHT31;13742;49.306;8.636;2022-10-26T02:09:01;14.45;80.82
25945;SHT31;13742;49.306;8.636;2022-10-26T02:10:22;14.45;80.88
25945;SHT31;13742;49.306;8.636;2022-10-26T02:11:52;14.47;80.75
25945;SHT31;13742;49.306;8.636;2022-10-26T02:14:05;14.48;80.69
25945;SHT31;13742;49.306;8.636;2022-10-26T02:14:59;14.47;80.54
25945;SHT31;13742;49.306;8.636;2022-10-26T02:16:03;14.47;80.63
25945;SHT31;13742;49.306;8.636;2022-10-26T02:17:01;14.48;80.83
25945;SHT31;13742;49.306;8.636;2022-10-26T02:18:07;14.48;80.84
25945;SHT31;13742;49.306;8.636;2022-10-26T02:19:04;14.47;80.70
25945;SHT31;13742;49.306;8.636;2022-10-26T02:20:02;14.47;80.70
25945;SHT31;13742;49.306;8.636;2022-10-26T02:20:58;14.48;80.76
25945;SHT31;13742;49.306;8.636;2022-10-26T02:21:59;14.45;80.46
25945;SHT31;13742;49.306;8.636;2022-10-26T02:22:54;14.48;80.55
25945;SHT31;13742;49.306;8.636;2022-10-26T02:23:54;14.47;80.55
25945;SHT31;13742;49.306;8.636;2022-10-26T02:24:53;14.47;80.60
25945;SHT31;13742;49.306;8.636;2022-10-26T02:25:55;14.48;80.66
25945;SHT31;13742;49.306;8.636;2022-10-26T02:26:53;14.50;80.68
25945;SHT31;13742;49.306;8.636;2022-10-26T02:27:59;14.50;80.74
25945;SHT31;13742;49.306;8.636;2022-10-26T02:28:55;14.48;80.78
25945;SHT31;13742;49.306;8.636;2022-10-26T02:29:54;14.50;80.81
25945;SHT31;13742;49.306;8.636;2022-10-26T02:30:54;14.51;80.86
25945;SHT31;13742;49.306;8.636;2022-10-26T02:31:53;14.48;80.78
25945;SHT31;13742;49.306;8.636;2022-10-26T02:32:54;14.50;80.80
25945;SHT31;13742;49.306;8.636;2022-10-26T02:33:54;14.52;80.80
25945;SHT31;13742;49.306;8.636;2022-10-26T02:34:55;14.48;80.75
25945;SHT31;13742;49.306;8.636;2022-10-26T02:35:53;14.50;80.78
25945;SHT31;13742;49.306;8.636;2022-10-26T02:36:55;14.48;80.93
25945;SHT31;13742;49.306;8.636;2022-10-26T02:37:55;14.50;80.92
25945;SHT31;13742;49.306;8.636;2022-10-26T02:38:53;14.51;80.85
25945;SHT31;13742;49.306;8.636;2022-10-26T02:39:54;14.48;80.89
25945;SHT31;13742;49.306;8.636;2022-10-26T02:40:53;14.48;81.06
25945;SHT31;13742;49.306;8.636;2022-10-26T02:41:53;14.47;81.11
25945;SHT31;13742;49.306;8.636;2022-10-26T02:42:56;14.47;81.18
25945;SHT31;13742;49.306;8.636;2022-10-26T02:43:59;14.47;81.11
25945;SHT31;13742;49.306;8.636;2022-10-26T02:44:59;14.45;81.30
25945;SHT31;13742;49.306;8.636;2022-10-26T02:45:56;14.48;81.30
25945;SHT31;13742;49.306;8.636;2022-10-26T02:46:53;14.44;81.34
25945;SHT31;13742;49.306;8.636;2022-10-26T02:47:53;14.42;81.37
25945;SHT31;13742;49.306;8.636;2022-10-26T02:48:53;14.45;81.54
25945;SHT31;13742;49.306;8.636;2022-10-26T02:49:53;14.45;81.58
25945;SHT31;13742;49.306;8.636;2022-10-26T02:51:08;14.45;81.52
25945;SHT31;13742;49.306;8.636;2022-10-26T02:52:01;14.44;81.56
25945;SHT31;13742;49.306;8.636;2022-10-26T02:53:10;14.44;81.66
25945;SHT31;13742;49.306;8.636;2022-10-26T02:53:57;14.44;81.88
25945;SHT31;13742;49.306;8.636;2022-10-26T02:55:52;14.42;82.53
25945;SHT31;13742;49.306;8.636;2022-10-26T02:57:31;14.41;82.31
25945;SHT31;13742;49.306;8.636;2022-10-26T02:57:59;14.42;82.61
25945;SHT31;13742;49.306;8.636;2022-10-26T02:58:58;14.45;82.59
25945;SHT31;13742;49.306;8.636;2022-10-26T02:59:52;14.42;82.75
25945;SHT31;13742;49.306;8.636;2022-10-26T03:00:52;14.42;82.69
25945;SHT31;13742;49.306;8.636;2022-10-26T03:01:52;14.44;82.46
25945;SHT31;13742;49.306;8.636;2022-10-26T03:02:55;14.42;82.52
25945;SHT31;13742;49.306;8.636;2022-10-26T03:03:56;14.41;82.61
25945;SHT31;13742;49.306;8.636;2022-10-26T03:04:53;14.41;82.72
25945;SHT31;13742;49.306;8.636;2022-10-26T03:05:52;14.42;82.72
25945;SHT31;13742;49.306;8.636;2022-10-26T03:06:53;14.42;82.73
25945;SHT31;13742;49.306;8.636;2022-10-26T03:07:53;14.41;82.71
25945;SHT31;13742;49.306;8.636;2022-10-26T03:08:52;14.38;82.57
25945;SHT31;13742;49.306;8.636;2022-10-26T03:09:52;14.38;82.54
25945;SHT31;13742;49.306;8.636;2022-10-26T03:10:52;14.38;82.58
25945;SHT31;13742;49.306;8.636;2022-10-26T03:11:52;14.38;82.67
25945;SHT31;13742;49.306;8.636;2022-10-26T03:12:52;14.35;82.61
25945;SHT31;13742;49.306;8.636;2022-10-26T03:13:52;14.37;82.58
25945;SHT31;13742;49.306;8.636;2022-10-26T03:14:52;14.40;82.49
25945;SHT31;13742;49.306;8.636;2022-10-26T03:15:55;14.35;82.39
25945;SHT31;13742;49.306;8.636;2022-10-26T03:16:52;14.35;82.58
25945;SHT31;13742;49.306;8.636;2022-10-26T03:17:52;14.35;82.48
25945;SHT31;13742;49.306;8.636;2022-10-26T03:18:52;14.35;82.55
25945;SHT31;13742;49.306;8.636;2022-10-26T03:19:52;14.32;82.47
25945;SHT31;13742;49.306;8.636;2022-10-26T03:20:52;14.35;82.39
25945;SHT31;13742;49.306;8.636;2022-10-26T03:21:52;14.35;82.49
25945;SHT31;13742;49.306;8.636;2022-10-26T03:22:52;14.34;82.53
25945;SHT31;13742;49.306;8.636;2022-10-26T03:23:52;14.34;82.70
25945;SHT31;13742;49.306;8.636;2022-10-26T03:24:52;14.35;82.74
25945;SHT31;13742;49.306;8.636;2022-10-26T03:25:56;14.35;82.96
25945;SHT31;13742;49.306;8.636;2022-10-26T03:26:52;14.37;82.85
25945;SHT31;13742;49.306;8.636;2022-10-26T03:28:00;14.37;82.69
25945;SHT31;13742;49.306;8.636;2022-10-26T03:28:52;14.35;82.63
25945;SHT31;13742;49.306;8.636;2022-10-26T03:29:53;14.35;82.68
25945;SHT31;13742;49.306;8.636;2022-10-26T03:30:52;14.37;82.71
25945;SHT31;13742;49.306;8.636;2022-10-26T03:31:54;14.35;82.76
25945;SHT31;13742;49.306;8.636;2022-10-26T03:32:52;14.34;82.91
25945;SHT31;13742;49.306;8.636;2022-10-26T03:33:52;14.37;82.90
25945;SHT31;13742;49.306;8.636;2022-10-26T03:34:52;14.37;82.77
25945;SHT31;13742;49.306;8.636;2022-10-26T03:35:55;14.35;82.75
25945;SHT31;13742;49.306;8.636;2022-10-26T03:36:52;14.32;82.65
25945;SHT31;13742;49.306;8.636;2022-10-26T03:37:52;14.31;82.51
25945;SHT31;13742;49.306;8.636;2022-10-26T03:38:52;14.31;82.50
25945;SHT31;13742;49.306;8.636;2022-10-26T03:39:52;14.28;82.52
25945;SHT31;13742;49.306;8.636;2022-10-26T03:40:52;14.30;82.54
25945;SHT31;13742;49.306;8.636;2022-10-26T03:41:52;14.30;82.47
25945;SHT31;13742;49.306;8.636;2022-10-26T03:42:52;14.31;82.48
25945;SHT31;13742;49.306;8.636;2022-10-26T03:43:52;14.28;82.50
25945;SHT31;13742;49.306;8.636;2022-10-26T03:44:52;14.30;82.59
25945;SHT31;13742;49.306;8.636;2022-10-26T03:45:52;14.30;82.52
25945;SHT31;13742;49.306;8.636;2022-10-26T03:46:52;14.30;82.43
25945;SHT31;13742;49.306;8.636;2022-10-26T03:47:52;14.30;82.39
25945;SHT31;13742;49.306;8.636;2022-10-26T03:48:52;14.28;82.28
25945;SHT31;13742;49.306;8.636;2022-10-26T03:49:52;14.31;82.33
25945;SHT31;13742;49.306;8.636;2022-10-26T03:50:56;14.30;82.40
25945;SHT31;13742;49.306;8.636;2022-10-26T03:51:52;14.30;82.64
25945;SHT31;13742;49.306;8.636;2022-10-26T03:52:52;14.34;82.45
25945;SHT31;13742;49.306;8.636;2022-10-26T03:53:52;14.32;82.38
25945;SHT31;13742;49.306;8.636;2022-10-26T03:54:52;14.34;82.40
25945;SHT31;13742;49.306;8.636;2022-10-26T03:55:52;14.31;82.46
25945;SHT31;13742;49.306;8.636;2022-10-26T03:56:52;14.32;82.40
25945;SHT31;13742;49.306;8.636;2022-10-26T03:57:52;14.32;82.41
25945;SHT31;13742;49.306;8.636;2022-10-26T03:58:52;14.34;82.38
25945;SHT31;13742;49.306;8.636;2022-10-26T03:59:52;14.32;82.21
25945;SHT31;13742;49.306;8.636;2022-10-26T04:00:52;14.34;82.10
25945;SHT31;13742;49.306;8.636;2022-10-26T04:01:52;14.32;82.15
25945;SHT31;13742;49.306;8.636;2022-10-26T04:02:55;14.30;82.13
25945;SHT31;13742;49.306;8.636;2022-10-26T04:03:52;14.30;82.15
25945;SHT31;13742;49.306;8.636;2022-10-26T04:04:52;14.28;82.42
25945;SHT31;13742;49.306;8.636;2022-10-26T04:05:52;14.32;82.54
25945;SHT31;13742;49.306;8.636;2022-10-26T04:06:52;14.30;82.47
25945;SHT31;13742;49.306;8.636;2022-10-26T04:07:53;14.31;82.51
25945;SHT31;13742;49.306;8.636;2022-10-26T04:08:57;14.31;82.44
25945;SHT31;13742;49.306;8.636;2022-10-26T04:09:52;14.30;82.31
25945;SHT31;13742;49.306;8.636;2022-10-26T04:10:52;14.30;82.44
25945;SHT31;13742;49.306;8.636;2022-10-26T04:11:52;14.30;82.41
25945;SHT31;13742;49.306;8.636;2022-10-26T04:12:52;14.28;82.41
25945;SHT31;13742;49.306;8.636;2022-10-26T04:13:52;14.28;82.61
25945;SHT31;13742;49.306;8.636;2022-10-26T04:14:52;14.28;82.54
25945;SHT31;13742;49.306;8.636;2022-10-26T04:15:52;14.28;82.60
25945;SHT31;13742;49.306;8.636;2022-10-26T04:16:52;14.28;82.76
25945;SHT31;13742;49.306;8.636;2022-10-26T04:17:57;14.27;82.65
25945;SHT31;13742;49.306;8.636;2022-10-26T04:18:52;14.25;82.61
25945;SHT31;13742;49.306;8.636;2022-10-26T04:19:52;14.27;82.65
25945;SHT31;13742;49.306;8.636;2022-10-26T04:20:52;14.25;82.52
25945;SHT31;13742;49.306;8.636;2022-10-26T04:21:52;14.24;82.59
25945;SHT31;13742;49.306;8.636;2022-10-26T04:23:00;14.27;82.46
25945;SHT31;13742;49.306;8.636;2022-10-26T04:23:52;14.24;82.49
25945;SHT31;13742;49.306;8.636;2022-10-26T04:24:52;14.23;82.54
25945;SHT31;13742;49.306;8.636;2022-10-26T04:25:52;14.24;82.72
25945;SHT31;13742;49.306;8.636;2022-10-26T04:26:52;14.27;82.66
25945;SHT31;13742;49.306;8.636;2022-10-26T04:27:52;14.24;82.62
25945;SHT31;13742;49.306;8.636;2022-10-26T04:28:52;14.23;82.53
25945;SHT31;13742;49.306;8.636;2022-10-26T04:29:52;14.23;82.62
25945;SHT31;13742;49.306;8.636;2022-10-26T04:30:52;14.23;82.66
25945;SHT31;13742;49.306;8.636;2022-10-26T04:31:52;14.20;82.62
25945;SHT31;13742;49.306;8.636;2022-10-26T04:32:52;14.23;82.79
25945;SHT31;13742;49.306;8.636;2022-10-26T04:33:52;14.23;82.57
25945;SHT31;13742;49.306;8.636;2022-10-26T04:34:53;14.23;82.70
25945;SHT31;13742;49.306;8.636;2022-10-26T04:35:57;14.23;82.64
25945;SHT31;13742;49.306;8.636;2022-10-26T04:36:52;14.19;82.71
25945;SHT31;13742;49.306;8.636;2022-10-26T04:37:57;14.21;82.67
25945;SHT31;13742;49.306;8.636;2022-10-26T04:38:52;14.21;82.70
25945;SHT31;13742;49.306;8.636;2022-10-26T04:39:52;14.23;82.78
25945;SHT31;13742;49.306;8.636;2022-10-26T04:40:52;14.24;82.84
25945;SHT31;13742;49.306;8.636;2022-10-26T04:41:53;14.21;82.81
25945;SHT31;13742;49.306;8.636;2022-10-26T04:42:52;14.21;82.73
25945;SHT31;13742;49.306;8.636;2022-10-26T04:43:52;14.19;82.78
25945;SHT31;13742;49.306;8.636;2022-10-26T04:44:52;14.20;82.79
25945;SHT31;13742;49.306;8.636;2022-10-26T04:45:56;14.20;82.83
25945;SHT31;13742;49.306;8.636;2022-10-26T04:46:52;14.19;82.86
25945;SHT31;13742;49.306;8.636;2022-10-26T04:48:07;14.20;82.71
25945;SHT31;13742;49.306;8.636;2022-10-26T04:48:52;14.19;82.80
25945;SHT31;13742;49.306;8.636;2022-10-26T04:49:52;14.19;82.80
25945;SHT31;13742;49.306;8.636;2022-10-26T04:50:52;14.19;82.69
25945;SHT31;13742;49.306;8.636;2022-10-26T04:51:52;14.17;82.63
25945;SHT31;13742;49.306;8.636;2022-10-26T04:52:52;14.19;82.75
25945;SHT31;13742;49.306;8.636;2022-10-26T04:53:53;14.19;82.85
25945;SHT31;13742;49.306;8.636;2022-10-26T04:54:52;14.17;82.85
25945;SHT31;13742;49.306;8.636;2022-10-26T04:55:56;14.20;82.95
25945;SHT31;13742;49.306;8.636;2022-10-26T04:56:52;14.17;82.93
25945;SHT31;13742;49.306;8.636;2022-10-26T04:57:52;14.20;82.95
25945;SHT31;13742;49.306;8.636;2022-10-26T04:58:53;14.20;82.94
25945;SHT31;13742;49.306;8.636;2022-10-26T04:59:52;14.21;82.77
25945;SHT31;13742;49.306;8.636;2022-10-26T05:00:52;14.19;82.95
25945;SHT31;13742;49.306;8.636;2022-10-26T05:01:52;14.19;83.05
25945;SHT31;13742;49.306;8.636;2022-10-26T05:03:00;14.20;82.99
25945;SHT31;13742;49.306;8.636;2022-10-26T05:03:52;14.19;83.02
25945;SHT31;13742;49.306;8.636;2022-10-26T05:04:52;14.16;83.09
25945;SHT31;13742;49.306;8.636;2022-10-26T05:05:52;14.19;82.98
25945;SHT31;13742;49.306;8.636;2022-10-26T05:06:52;14.19;82.97
25945;SHT31;13742;49.306;8.636;2022-10-26T05:07:55;14.21;83.04
25945;SHT31;13742;49.306;8.636;2022-10-26T05:08:52;14.20;82.96
25945;SHT31;13742;49.306;8.636;2022-10-26T05:09:52;14.19;82.82
25945;SHT31;13742;49.306;8.636;2022-10-26T05:10:53;14.16;82.76
25945;SHT31;13742;49.306;8.636;2022-10-26T05:11:52;14.19;82.86
25945;SHT31;13742;49.306;8.636;2022-10-26T05:12:53;14.19;82.85
25945;SHT31;13742;49.306;8.636;2022-10-26T05:13:52;14.19;82.80
25945;SHT31;13742;49.306;8.636;2022-10-26T05:14:52;14.21;82.82
25945;SHT31;13742;49.306;8.636;2022-10-26T05:15:52;14.21;82.77
25945;SHT31;13742;49.306;8.636;2022-10-26T05:16:54;14.20;82.80
25945;SHT31;13742;49.306;8.636;2022-10-26T05:18:52;14.20;82.77
25945;SHT31;13742;49.306;8.636;2022-10-26T05:19:54;14.21;82.75
25945;SHT31;13742;49.306;8.636;2022-10-26T05:20:52;14.19;82.74
25945;SHT31;13742;49.306;8.636;2022-10-26T05:21:52;14.20;82.70
25945;SHT31;13742;49.306;8.636;2022-10-26T05:22:52;14.17;82.77
25945;SHT31;13742;49.306;8.636;2022-10-26T05:23:54;14.19;82.73
25945;SHT31;13742;49.306;8.636;2022-10-26T05:24:52;14.20;82.86
25945;SHT31;13742;49.306;8.636;2022-10-26T05:25:53;14.21;82.80
25945;SHT31;13742;49.306;8.636;2022-10-26T05:26:52;14.19;82.69
25945;SHT31;13742;49.306;8.636;2022-10-26T05:27:57;14.23;82.65
25945;SHT31;13742;49.306;8.636;2022-10-26T05:28:52;14.23;82.70
25945;SHT31;13742;49.306;8.636;2022-10-26T05:29:52;14.21;82.60
25945;SHT31;13742;49.306;8.636;2022-10-26T05:30:52;14.20;82.68
25945;SHT31;13742;49.306;8.636;2022-10-26T05:31:52;14.20;82.70
25945;SHT31;13742;49.306;8.636;2022-10-26T05:32:53;14.21;82.73
25945;SHT31;13742;49.306;8.636;2022-10-26T05:33:52;14.20;82.69
25945;SHT31;13742;49.306;8.636;2022-10-26T05:34:52;14.20;82.72
25945;SHT31;13742;49.306;8.636;2022-10-26T05:35:55;14.20;82.67
25945;SHT31;13742;49.306;8.636;2022-10-26T05:36:52;14.20;82.66
25945;SHT31;13742;49.306;8.636;2022-10-26T05:37:52;14.21;82.66
25945;SHT31;13742;49.306;8.636;2022-10-26T05:38:52;14.20;82.74
25945;SHT31;13742;49.306;8.636;2022-10-26T05:39:52;14.21;82.75
25945;SHT31;13742;49.306;8.636;2022-10-26T05:40:53;14.19;82.67
25945;SHT31;13742;49.306;8.636;2022-10-26T05:41:52;14.19;82.61
25945;SHT31;13742;49.306;8.636;2022-10-26T05:42:58;14.20;82.74
25945;SHT31;13742;49.306;8.636;2022-10-26T05:43:52;14.20;82.81
25945;SHT31;13742;49.306;8.636;2022-10-26T05:44:52;14.23;82.74
25945;SHT31;13742;49.306;8.636;2022-10-26T05:45:52;14.21;82.81
25945;SHT31;13742;49.306;8.636;2022-10-26T05:46:52;14.23;83.07
25945;SHT31;13742;49.306;8.636;2022-10-26T05:47:52;14.23;82.87
25945;SHT31;13742;49.306;8.636;2022-10-26T05:48:52;14.24;82.97
25945;SHT31;13742;49.306;8.636;2022-10-26T05:49:52;14.23;83.02
25945;SHT31;13742;49.306;8.636;2022-10-26T05:50:52;14.23;83.03
25945;SHT31;13742;49.306;8.636;2022-10-26T05:51:52;14.23;82.99
25945;SHT31;13742;49.306;8.636;2022-10-26T05:52:52;14.21;82.98
25945;SHT31;13742;49.306;8.636;2022-10-26T05:53:55;14.21;82.91
25945;SHT31;13742;49.306;8.636;2022-10-26T05:54:52;14.21;82.87
25945;SHT31;13742;49.306;8.636;2022-10-26T05:55:54;14.23;82.81
25945;SHT31;13742;49.306;8.636;2022-10-26T05:56:52;14.21;82.95
25945;SHT31;13742;49.306;8.636;2022-10-26T05:57:52;14.20;82.91
25945;SHT31;13742;49.306;8.636;2022-10-26T05:58:52;14.19;82.89
25945;SHT31;13742;49.306;8.636;2022-10-26T05:59:52;14.20;83.04
25945;SHT31;13742;49.306;8.636;2022-10-26T06:01:19;14.20;83.01
25945;SHT31;13742;49.306;8.636;2022-10-26T06:04:52;14.19;83.14
25945;SHT31;13742;49.306;8.636;2022-10-26T06:05:57;14.20;83.42
25945;SHT31;13742;49.306;8.636;2022-10-26T06:06:53;14.17;83.30
25945;SHT31;13742;49.306;8.636;2022-10-26T06:07:52;14.17;83.42
25945;SHT31;13742;49.306;8.636;2022-10-26T06:08:52;14.19;83.32
25945;SHT31;13742;49.306;8.636;2022-10-26T06:09:52;14.16;83.35
25945;SHT31;13742;49.306;8.636;2022-10-26T06:10:54;14.16;83.41
25945;SHT31;13742;49.306;8.636;2022-10-26T06:11:52;14.19;83.32
25945;SHT31;13742;49.306;8.636;2022-10-26T06:12:52;14.14;83.39
25945;SHT31;13742;49.306;8.636;2022-10-26T06:13:54;14.13;83.41
25945;SHT31;13742;49.306;8.636;2022-10-26T06:14:52;14.14;83.47
25945;SHT31;13742;49.306;8.636;2022-10-26T06:16:01;14.13;83.41
25945;SHT31;13742;49.306;8.636;2022-10-26T06:17:02;14.16;83.43
25945;SHT31;13742;49.306;8.636;2022-10-26T06:19:14;14.13;83.55
25945;SHT31;13742;49.306;8.636;2022-10-26T06:20:07;14.14;83.53
25945;SHT31;13742;49.306;8.636;2022-10-26T06:21:03;14.19;83.48
25945;SHT31;13742;49.306;8.636;2022-10-26T06:28:06;14.17;83.42
25945;SHT31;13742;49.306;8.636;2022-10-26T06:30:00;14.19;83.40
25945;SHT31;13742;49.306;8.636;2022-10-26T06:30:52;14.19;83.40
25945;SHT31;13742;49.306;8.636;2022-10-26T06:31:52;14.20;83.43
25945;SHT31;13742;49.306;8.636;2022-10-26T06:32:54;14.19;83.56
25945;SHT31;13742;49.306;8.636;2022-10-26T06:33:57;14.20;83.62
25945;SHT31;13742;49.306;8.636;2022-10-26T06:35:07;14.19;83.53
25945;SHT31;13742;49.306;8.636;2022-10-26T06:36:03;14.19;83.56
25945;SHT31;13742;49.306;8.636;2022-10-26T06:36:52;14.21;83.47
25945;SHT31;13742;49.306;8.636;2022-10-26T06:37:54;14.23;83.50
25945;SHT31;13742;49.306;8.636;2022-10-26T06:39:10;14.23;83.62
25945;SHT31;13742;49.306;8.636;2022-10-26T06:39:52;14.24;83.74
25945;SHT31;13742;49.306;8.636;2022-10-26T06:40:54;14.24;83.70
25945;SHT31;13742;49.306;8.636;2022-10-26T06:41:53;14.25;83.97
25945;SHT31;13742;49.306;8.636;2022-10-26T06:42:52;14.30;83.98
25945;SHT31;13742;49.306;8.636;2022-10-26T06:43:52;14.30;84.09
25945;SHT31;13742;49.306;8.636;2022-10-26T06:44:52;14.32;83.93
25945;SHT31;13742;49.306;8.636;2022-10-26T06:47:01;14.31;84.00
25945;SHT31;13742;49.306;8.636;2022-10-26T06:49:46;14.31;83.96
25945;SHT31;13742;49.306;8.636;2022-10-26T06:50:00;14.31;84.16
25945;SHT31;13742;49.306;8.636;2022-10-26T06:50:52;14.28;84.20
25945;SHT31;13742;49.306;8.636;2022-10-26T06:54:07;14.25;84.59